Historique des stations

Station météo de Les Ormes

Altitude de la station : 76 m







Données météorologiques pour le 20/10/2021
Date
Heure
Températures Humidité Point de rosée Vitesse
du vent
Direction Rafales Windchill Pression Pluviométrie
Cumul
Date
Heure
Températures Humidité Point de rosée Vitesse
du vent
Direction Rafales Windchill Pression Pluviométrie
Cumul
20/10/2021 23:5913.7 °C85 %11.1 °C11 km/hNO50 km/h12.8 1006 hPa1.4 mm
20/10/2021 23:4413.8 °C86 %11.7 °C5 km/hN50 km/h13.9 1006 hPa1.4 mm
20/10/2021 23:2913.8 °C87 %11.7 °C11 km/hNNE50 km/h12.8 1005 hPa1.4 mm
20/10/2021 23:1413.7 °C90 %12.2 °C24 km/hNO47 km/h10.6 1005 hPa1.4 mm
20/10/2021 22:5914.1 °C88 %12.2 °C24 km/hNNO47 km/h10.6 1005 hPa1.2 mm
20/10/2021 22:4414.6 °C87 %12.8 °C8 km/hN47 km/h14.4 1005 hPa0.8 mm
20/10/2021 22:2915.2 °C86 %12.8 °C5 km/hNNE47 km/h15.0 1005 hPa0.8 mm
20/10/2021 22:1418.1 °C77 %13.9 °C19 km/hNNE47 km/h16.7 1005 hPa0.6 mm
20/10/2021 21:5918.2 °C75 %13.9 °C29 km/hN47 km/h15.0 1003 hPa0.6 mm
20/10/2021 21:4517.9 °C78 %13.9 °C11 km/hNNO47 km/h17.2 1003 hPa0.6 mm
20/10/2021 21:3017.8 °C81 %14.4 °C31 km/hN47 km/h14.4 1003 hPa0.6 mm
20/10/2021 21:1517.7 °C82 %14.4 °C14 km/hNO47 km/h16.7 1003 hPa0.6 mm
20/10/2021 21:0017.8 °C82 %15.0 °C8 km/hN35 km/h17.8 1004 hPa0.6 mm
20/10/2021 20:4417.7 °C83 %15.0 °C13 km/hN35 km/h17.2 1004 hPa0.6 mm
20/10/2021 20:2917.9 °C83 %15.0 °C8 km/hNNO35 km/h17.8 1005 hPa0.6 mm
20/10/2021 20:1418.2 °C82 %15.0 °C11 km/hN31 km/h17.8 1005 hPa0.6 mm
20/10/2021 19:5918.4 °C80 %15.0 °C10 km/hNNO31 km/h18.3 1005 hPa0.6 mm
20/10/2021 19:4418.5 °C79 %15.0 °C5 km/hN31 km/h18.3 1006 hPa0.6 mm
20/10/2021 19:2918.6 °C79 %15.0 °C13 km/hNO31 km/h17.8 1006 hPa0.6 mm
20/10/2021 19:1418.6 °C78 %14.4 °C8 km/hNNO31 km/h18.9 1006 hPa0.6 mm
20/10/2021 18:5918.7 °C78 %15.0 °C6 km/hN31 km/h18.9 1006 hPa0.6 mm
20/10/2021 18:4418.7 °C79 %15.0 °C14 km/hNNO31 km/h17.8 1006 hPa0.6 mm
20/10/2021 18:2918.8 °C80 %15.6 °C6 km/hN31 km/h18.9 1007 hPa0.6 mm
20/10/2021 18:1419.1 °C79 %15.6 °C11 km/hN31 km/h18.3 1007 hPa0.6 mm
20/10/2021 17:5919.2 °C81 %16.1 °C8 km/hNNO31 km/h19.4 1007 hPa0.6 mm
20/10/2021 17:4419.4 °C81 %16.1 °C14 km/hNO31 km/h18.3 1007 hPa0.6 mm
20/10/2021 17:2819.4 °C81 %16.1 °C16 km/hNNO31 km/h18.3 1008 hPa0.6 mm
20/10/2021 17:1419.4 °C81 %16.1 °C3 km/hNO31 km/h19.4 1008 hPa0.6 mm
20/10/2021 16:5919.4 °C83 %16.7 °C10 km/hNO31 km/h19.4 1008 hPa0.6 mm
20/10/2021 16:4419.3 °C84 %16.7 °C10 km/hONO31 km/h19.4 1009 hPa0.6 mm
20/10/2021 16:2919.6 °C83 %16.7 °C6 km/hNO31 km/h19.4 1009 hPa0.6 mm
20/10/2021 16:1419.5 °C82 %16.1 °C6 km/hN31 km/h19.4 1009 hPa0.6 mm
20/10/2021 15:5919.7 °C82 %16.7 °C5 km/hN31 km/h19.4 1009 hPa0.6 mm
20/10/2021 15:4419.9 °C82 %16.7 °C8 km/hNNO31 km/h20.0 1009 hPa0.6 mm
20/10/2021 15:2920.4 °C81 %17.2 °C18 km/hNO31 km/h18.9 1010 hPa0.6 mm
20/10/2021 15:1419.6 °C84 %16.7 °C8 km/hONO31 km/h19.4 1010 hPa0.6 mm
20/10/2021 14:5919.5 °C85 %17.2 °C10 km/hO31 km/h19.4 1010 hPa0.6 mm
20/10/2021 14:4518.8 °C87 %16.7 °C11 km/hONO31 km/h18.3 1011 hPa0.6 mm
20/10/2021 14:3018.6 °C88 %16.7 °C13 km/hNO31 km/h17.8 1011 hPa0.6 mm
20/10/2021 14:1418.7 °C90 %17.2 °C6 km/hNNO31 km/h18.9 1011 hPa0.6 mm
20/10/2021 13:5917.8 °C91 %16.7 °C11 km/hNNO31 km/h17.2 1011 hPa0.6 mm
20/10/2021 13:4417.9 °C91 %16.7 °C10 km/hNNO31 km/h17.8 1012 hPa0.6 mm
20/10/2021 13:2918.0 °C92 %16.7 °C6 km/hONO31 km/h17.8 1012 hPa0.6 mm
20/10/2021 13:1417.6 °C92 %16.1 °C11 km/hNO31 km/h17.2 1012 hPa0.6 mm
20/10/2021 12:5917.4 °C93 %16.1 °C5 km/hO31 km/h17.2 1012 hPa0.6 mm
20/10/2021 12:4417.1 °C92 %16.1 °C8 km/hNO31 km/h17.2 1012 hPa0.6 mm
20/10/2021 12:2917.1 °C91 %15.6 °C11 km/hNO31 km/h16.7 1013 hPa0.6 mm
20/10/2021 12:1417.5 °C89 %15.6 °C11 km/hNO31 km/h17.2 1013 hPa0.6 mm
20/10/2021 11:5917.6 °C88 %15.6 °C6 km/hO31 km/h17.8 1013 hPa0.6 mm
20/10/2021 11:4417.6 °C88 %15.6 °C5 km/hONO31 km/h17.8 1013 hPa0.6 mm
20/10/2021 11:2917.6 °C87 %15.6 °C10 km/hNO31 km/h17.8 1013 hPa0.6 mm
20/10/2021 11:1417.2 °C88 %15.0 °C6 km/hN31 km/h17.2 1013 hPa0.6 mm
20/10/2021 10:5916.9 °C89 %15.0 °C3 km/hNO31 km/h17.2 1013 hPa0.6 mm
20/10/2021 10:4416.7 °C89 %15.0 °C10 km/hNNO31 km/h16.7 1013 hPa0.6 mm
20/10/2021 10:2916.6 °C90 %15.0 °C5 km/hN31 km/h16.7 1013 hPa0.6 mm
20/10/2021 10:1416.5 °C90 %15.0 °C2 km/hNO31 km/h16.7 1013 hPa0.6 mm
20/10/2021 09:5916.2 °C90 %14.4 °C-NO31 km/h16.1 1013 hPa0.4 mm
20/10/2021 09:4416.3 °C88 %14.4 °C5 km/hNO31 km/h16.1 1012 hPa0.4 mm
20/10/2021 09:2916.7 °C85 %14.4 °C16 km/hNNO31 km/h15.0 1013 hPa-
20/10/2021 09:1416.8 °C84 %13.9 °C6 km/hNNO31 km/h16.7 1013 hPa-
20/10/2021 08:5916.7 °C83 %13.9 °C10 km/hN31 km/h16.7 1012 hPa-
20/10/2021 08:4516.8 °C83 %13.9 °C10 km/hONO31 km/h16.7 1012 hPa-
20/10/2021 08:3016.7 °C83 %13.9 °C6 km/hNO24 km/h16.7 1013 hPa-
20/10/2021 08:1516.7 °C83 %13.9 °C8 km/hNNO24 km/h16.7 1013 hPa-
20/10/2021 08:0016.7 °C82 %13.9 °C2 km/hNNE24 km/h16.7 1013 hPa-
20/10/2021 07:4516.6 °C82 %13.3 °C6 km/hONO24 km/h16.7 1013 hPa-
20/10/2021 07:3016.7 °C82 %13.3 °C5 km/hNNO24 km/h16.7 1013 hPa-
20/10/2021 07:1516.8 °C81 %13.3 °C6 km/hN24 km/h16.7 1013 hPa-
20/10/2021 06:5917.1 °C80 %13.9 °C6 km/hN24 km/h17.2 1013 hPa-
20/10/2021 06:4416.8 °C81 %13.3 °C5 km/hNNO24 km/h16.7 1013 hPa-
20/10/2021 06:2916.6 °C82 %13.3 °C5 km/hNNO24 km/h16.7 1013 hPa-
20/10/2021 06:1416.5 °C82 %13.3 °C-NNO24 km/h16.7 1013 hPa-
20/10/2021 05:5916.6 °C81 %13.3 °C8 km/hO24 km/h16.7 1013 hPa-
20/10/2021 05:4416.7 °C81 %13.3 °C8 km/hN24 km/h16.7 1013 hPa-
20/10/2021 05:2916.6 °C82 %13.3 °C2 km/hNO24 km/h16.7 1013 hPa-
20/10/2021 05:1416.4 °C82 %13.3 °C3 km/hNNO24 km/h16.7 1013 hPa-
20/10/2021 04:5916.6 °C81 %13.3 °C3 km/hN23 km/h16.7 1013 hPa-
20/10/2021 04:4416.5 °C81 %13.3 °C6 km/hO23 km/h16.7 1013 hPa-
20/10/2021 04:2916.6 °C81 %13.3 °C2 km/hONO23 km/h16.7 1013 hPa-
20/10/2021 04:1416.5 °C81 %13.3 °C13 km/hO23 km/h16.1 1013 hPa-
20/10/2021 03:5916.4 °C81 %13.3 °C6 km/hONO23 km/h16.7 1013 hPa-
20/10/2021 03:4316.4 °C81 %13.3 °C5 km/hNO23 km/h16.7 1013 hPa-
20/10/2021 03:2916.4 °C81 %13.3 °C5 km/hNO23 km/h16.7 1014 hPa-
20/10/2021 03:1416.6 °C81 %13.3 °C6 km/hNO23 km/h16.7 1014 hPa-
20/10/2021 02:5916.6 °C81 %13.3 °C5 km/hNNO23 km/h16.7 1014 hPa-
20/10/2021 02:4416.7 °C81 %13.3 °C11 km/hO23 km/h16.1 1014 hPa-
20/10/2021 02:2916.8 °C81 %13.3 °C5 km/hO23 km/h16.7 1014 hPa-
20/10/2021 02:1416.8 °C81 %13.3 °C10 km/hNO23 km/h16.7 1015 hPa-
20/10/2021 01:5916.8 °C81 %13.3 °C8 km/hNO23 km/h16.7 1015 hPa-
20/10/2021 01:4416.9 °C80 %13.3 °C8 km/hONO23 km/h17.2 1015 hPa-
20/10/2021 01:2917.2 °C79 %13.3 °C5 km/hNO23 km/h17.2 1015 hPa-
20/10/2021 01:1417.4 °C79 %13.9 °C-NNO23 km/h17.2 1015 hPa-
20/10/2021 00:5917.4 °C78 %13.3 °C13 km/hNO18 km/h16.7 1015 hPa-
20/10/2021 00:4417.4 °C78 %13.3 °C13 km/hNNO18 km/h16.7 1015 hPa-
20/10/2021 00:2917.2 °C78 %13.3 °C8 km/hNO14 km/h17.2 1016 hPa-
20/10/2021 00:1416.9 °C79 %13.3 °C8 km/hN13 km/h16.7 1016 hPa-


Minima :

Température : 13.7 °C
Humidité : 75 %
Point de rosée : 11.1 °C
Vent moyen : 2 km/h
Windchill : 10.6
Pression atm. : 1003 hPa
Maxima :

Température : 20.4 °C
Humidité : 93 %
Point de rosée : 17.2 °C
Vent moyen : 31 km/h
Windchill : 20.0
Pression atm. : 1016 hPa
Rafales max : 50 km/h
Cumul de pluie sur 24H : 1.4 mm

Les Ormes est une commune du département Vienne (86).
La station météorologique du réseau de l'association la plus proche de Les Ormes est celle de Le Louroux



Icône Facebook Association Météo Centre Icône Twitter Association Météo Centre Icône Chaîne Youtube Association Météo Centre Icône contact Association Météo Centre Icône Insta Association Météo Centre